Terminal Aerodrome Forecast
Issued by NWS

Current Version | Previous Version | Graphics & Text | Print | Product List | Glossary On
Versions: 1 2 3 4 5 6 7 8 9 10 11 12 13 14 15
000
FTUS41 KILN 081300 AAA
TAFLCK
TAF AMD
KLCK 081312Z 0813/0912 21014G24KT P6SM SCT015 BKN100
      TEMPO 0813/0815 BKN015
     FM081600 23012G24KT P6SM BKN035
      TEMPO 0816/0817 5SM -TSRA OVC025CB
     FM082100 24014G26KT P6SM VCTS BKN035CB
     FM090200 27008KT P6SM BKN040
     FM090600 28005KT P6SM SCT040
      TEMPO 0909/0912 4SM BR SCT005=

USA.gov is the U.S. government's official web portal to all federal, state and local government web resources and services.